Meteorología y climatología de Navarra
Datos de la estación - Meteo Navarra

Estación de Arangoiti GN

Altitud 1353 m.


Datos desde el 11/10/2018 hasta el 12/10/2018 en horario solar
Los datos son PROVISIONALES

Anterior Página 1 de 1 Siguiente Descargar: Formato para Excel 2000 o superior   Formato csv   Formato para OpenOffice Calc
Fecha Temperatura Humedad relativa Radiación global Insolación Precipitación Velocidad viento 10 m Velocidad viento 10 m Dirección viento 10 m
ºC % W/m² s l/m² m/s km/h º
11/10/2018 0:00 9.9 100 0.0 0 0.0 13.0 46.7 158
11/10/2018 0:10 9.9 100 0.0 0 0.0 12.7 45.9 158
11/10/2018 0:20 10.3 100 0.0 0 0.0 13.1 47.1 160
11/10/2018 0:30 9.9 100 0.0 0 0.0 13.4 48.1 156
11/10/2018 0:40 10.2 100 0.0 0 0.0 13.1 47.2 159
11/10/2018 0:50 10.2 100 0.0 0 0.0 12.6 45.3 156
11/10/2018 1:00 9.9 100 0.0 0 0.0 12.7 45.7 157
11/10/2018 1:10 9.8 100 0.0 0 0.0 12.8 46.0 156
11/10/2018 1:20 9.8 100 0.0 0 0.0 13.1 47.1 154
11/10/2018 1:30 9.8 100 0.0 0 0.0 13.1 47.3 153
11/10/2018 1:40 10.2 100 0.0 0 0.0 13.3 48.0 155
11/10/2018 1:50 10.2 100 0.0 0 0.0 13.4 48.4 153
11/10/2018 2:00 9.8 100 0.0 0 0.0 14.0 50.3 151
11/10/2018 2:10 10.3 100 0.0 0 0.0 14.0 50.5 150
11/10/2018 2:20 10.0 99 0.0 0 0.0 14.1 50.9 150
11/10/2018 2:30 10.4 98 0.0 0 0.0 13.8 49.5 151
11/10/2018 2:40 10.5 97 0.0 0 0.0 12.9 46.3 150
11/10/2018 2:50 10.8 96 0.0 0 0.0 13.4 48.2 149
11/10/2018 3:00 10.4 96 0.0 0 0.0 13.6 49.1 150
11/10/2018 3:10 10.6 94 0.0 0 0.0 13.5 48.6 153
11/10/2018 3:20 10.4 94 0.0 0 0.0 13.9 50.1 156
11/10/2018 3:30 10.1 94 0.0 0 0.0 13.6 49.1 157
11/10/2018 3:40 10.0 95 0.0 0 0.0 13.2 47.4 156
11/10/2018 3:50 9.9 95 0.0 0 0.0 12.9 46.3 152
11/10/2018 4:00 10.0 96 0.0 0 0.0 13.0 46.8 153
11/10/2018 4:10 9.9 97 0.0 0 0.0 13.3 47.8 155
11/10/2018 4:20 10.4 97 0.0 0 0.0 14.0 50.5 155
11/10/2018 4:30 10.2 98 0.0 0 0.0 13.2 47.4 155
11/10/2018 4:40 10.2 98 0.0 0 0.0 12.5 45.1 154
11/10/2018 4:50 10.2 99 0.0 0 0.0 12.4 44.7 153
11/10/2018 5:00 9.7 99 0.0 0 0.0 12.4 44.5 155
11/10/2018 5:10 9.8 99 0.0 0 0.0 12.0 43.2 154
11/10/2018 5:20 9.7 99 0.0 0 0.0 13.2 47.5 150
11/10/2018 5:30 10.5 100 0.0 0 0.0 13.8 49.5 150
11/10/2018 5:40 10.2 100 0.0 0 0.0 13.7 49.1 151
11/10/2018 5:50 10.1 100 0.0 0 0.0 13.6 48.8 157
11/10/2018 6:00 10.0 100 0.0 0 0.0 13.8 49.6 157
11/10/2018 6:10 9.7 100 0.0 0 0.0 14.6 52.5 158
11/10/2018 6:20 10.0 100 0.2 0 0.0 15.2 54.5 159
11/10/2018 6:30 9.8 100 15.6 80 0.0 15.4 55.4 157
11/10/2018 6:40 10.2 100 29.7 246 0.0 14.5 52.1 157
11/10/2018 6:50 9.7 100 47.6 422 0.0 14.3 51.3 158
11/10/2018 7:00 10.2 100 47.6 100 0.0 14.1 50.6 158
11/10/2018 7:10 10.2 100 43.6 0 0.0 13.9 50.1 157
11/10/2018 7:20 10.2 100 38.4 0 0.0 13.7 49.3 157
11/10/2018 7:30 10.0 100 52.6 0 0.0 13.8 49.8 158
11/10/2018 7:40 10.1 100 83.7 44 0.0 14.2 51.2 156
11/10/2018 7:50 10.1 100 91.4 32 0.0 13.4 48.4 153
11/10/2018 8:00 10.1 100 56.5 0 0.0 12.5 45.0 156
11/10/2018 8:10 10.8 100 66.8 0 0.0 12.4 44.5 160
11/10/2018 8:20 10.3 100 99.3 0 0.0 12.2 43.7 160
11/10/2018 8:30 10.4 100 121.7 0 0.0 12.8 46.1 157
11/10/2018 8:40 10.4 99 152.9 78 0.0 13.0 46.6 157
11/10/2018 8:50 10.8 98 259.6 302 0.0 13.3 47.9 156
11/10/2018 9:00 12.3 95 364.0 586 0.0 12.6 45.3 154
11/10/2018 9:10 11.8 95 293.2 342 0.0 12.3 44.2 156
11/10/2018 9:20 12.1 94 350.9 594 0.0 12.5 44.9 155
11/10/2018 9:30 12.9 91 416.6 572 0.0 13.0 46.9 158
11/10/2018 9:40 12.7 89 493.0 506 0.0 13.6 49.1 157
11/10/2018 9:50 13.1 87 515.9 568 0.0 13.7 49.3 158
11/10/2018 10:00 13.4 87 526.4 520 0.0 13.8 49.6 163
11/10/2018 10:10 13.7 85 378.2 330 0.0 14.6 52.7 167
11/10/2018 10:20 13.4 82 347.2 270 0.0 15.1 54.4 163
11/10/2018 10:30 14.1 81 534.7 482 0.0 15.3 55.0 157
11/10/2018 10:40 13.6 83 356.9 206 0.0 14.2 51.1 160
11/10/2018 10:50 13.6 85 145.1 0 0.0 13.0 46.7 160
11/10/2018 11:00 13.3 85 65.4 0 0.0 13.1 47.3 166
11/10/2018 11:10 12.8 87 33.4 0 0.0 13.3 47.7 167
11/10/2018 11:20 13.0 88 29.0 0 0.0 11.2 40.2 170
11/10/2018 11:30 11.9 94 37.1 0 0.2 12.4 44.5 178
11/10/2018 11:40 12.1 97 35.3 0 0.2 11.7 42.1 175
11/10/2018 11:50 11.5 98 25.1 0 0.1 10.0 35.9 179
11/10/2018 12:00 11.9 98 44.7 0 0.1 11.7 42.2 173
11/10/2018 12:10 11.9 99 94.9 0 0.1 12.3 44.1 171
11/10/2018 12:20 11.9 99 88.9 0 0.0 12.3 44.2 167
11/10/2018 12:30 11.8 98 106.2 0 0.0 13.2 47.7 166
11/10/2018 12:40 12.0 97 157.8 0 0.0 13.5 48.5 164
11/10/2018 12:50 12.0 97 86.7 0 0.0 12.7 45.7 161
11/10/2018 13:00 11.8 96 96.8 0 0.0 13.0 46.8 158
11/10/2018 13:10 12.3 95 106.7 0 0.0 13.8 49.8 159
11/10/2018 13:20 12.2 96 95.9 0 0.0 12.9 46.3 163
11/10/2018 13:30 12.3 92 82.7 0 0.0 11.9 42.8 160
11/10/2018 13:40 12.7 93 102.9 0 0.0 12.3 44.1 161
11/10/2018 13:50 12.7 91 133.3 0 0.0 12.5 45.1 160
11/10/2018 14:00 13.0 92 117.9 0 0.0 12.1 43.6 160
11/10/2018 14:10 12.7 90 107.8 0 0.0 12.0 43.2 154
11/10/2018 14:20 12.7 90 99.0 0 0.0 12.2 43.7 158
11/10/2018 14:30 12.7 90 70.0 0 0.0 13.1 47.1 159
11/10/2018 14:40 13.0 92 59.1 0 0.0 12.2 43.8 167
11/10/2018 14:50 13.4 89 84.4 0 0.0 13.7 49.1 172
11/10/2018 15:00 13.2 87 76.1 0 0.0 14.7 52.8 174
11/10/2018 15:10 13.2 89 58.5 0 0.0 11.8 42.3 170
11/10/2018 15:20 13.5 90 73.6 0 0.0 13.2 47.4 174
11/10/2018 15:30 13.6 88 43.7 0 0.0 15.9 57.2 173
11/10/2018 15:40 13.2 89 32.7 0 0.0 13.8 49.8 167
11/10/2018 15:50 13.2 90 23.3 0 0.0 13.5 48.6 167
11/10/2018 16:00 13.5 91 32.0 0 0.0 12.4 44.7 166
11/10/2018 16:10 13.4 92 26.2 0 0.0 11.5 41.2 164
11/10/2018 16:20 12.7 93 28.8 0 0.0 12.2 44.0 167
11/10/2018 16:30 13.1 94 49.8 0 0.0 12.1 43.7 162
11/10/2018 16:40 12.7 93 34.1 0 0.1 12.2 44.0 164
11/10/2018 16:50 13.1 94 22.7 0 0.0 12.4 44.6 163
11/10/2018 17:00 12.9 95 27.3 0 0.0 11.4 41.1 161
11/10/2018 17:10 13.0 93 25.6 0 0.0 12.2 43.9 159
11/10/2018 17:20 13.0 93 2.0 0 0.0 12.6 45.2 159
11/10/2018 17:30 12.7 92 0.0 0 0.0 12.0 43.2 159
11/10/2018 17:40 13.1 93 0.0 0 0.0 12.0 43.0 159
11/10/2018 17:50 13.0 92 0.0 0 0.0 11.8 42.4 156
11/10/2018 18:00 12.8 91 0.0 0 0.0 11.7 42.1 157
11/10/2018 18:10 13.2 91 0.0 0 0.0 12.2 44.0 160
11/10/2018 18:20 13.6 91 0.0 0 0.0 11.8 42.4 156
11/10/2018 18:30 13.2 91 0.0 0 0.0 12.0 43.2 158
11/10/2018 18:40 12.8 91 0.0 0 0.0 11.7 42.0 156
11/10/2018 18:50 13.3 91 0.0 0 0.0 11.5 41.2 159
11/10/2018 19:00 13.0 90 0.0 0 0.0 11.3 40.7 156
11/10/2018 19:10 13.4 90 0.0 0 0.0 11.3 40.5 157
11/10/2018 19:20 13.4 91 0.0 0 0.0 11.3 40.7 157
11/10/2018 19:30 13.2 91 0.0 0 0.0 10.7 38.4 158
11/10/2018 19:40 13.0 94 0.0 0 0.0 11.5 41.3 158
11/10/2018 19:50 12.7 96 0.0 0 0.2 10.7 38.3 161
11/10/2018 20:00 12.5 95 0.0 0 0.1 12.3 44.4 163
11/10/2018 20:10 13.1 93 0.0 0 0.0 13.2 47.6 161
11/10/2018 20:20 12.7 93 0.0 0 0.0 12.4 44.7 162
11/10/2018 20:30 13.0 94 0.0 0 0.0 11.4 40.9 157
11/10/2018 20:40 12.9 92 0.0 0 0.0 12.7 45.7 163
11/10/2018 20:50 12.7 92 0.0 0 0.0 12.5 45.1 160
11/10/2018 21:00 12.7 92 0.0 0 0.0 13.1 47.1 163
11/10/2018 21:10 12.5 93 0.0 0 0.0 13.4 48.1 161
11/10/2018 21:20 13.0 91 0.0 0 0.0 13.8 49.6 161
11/10/2018 21:30 12.6 91 0.0 0 0.0 12.9 46.5 161
11/10/2018 21:40 13.2 91 0.0 0 0.0 12.6 45.5 161
11/10/2018 21:50 12.8 91 0.0 0 0.0 12.8 46.0 160
11/10/2018 22:00 12.7 92 0.0 0 0.0 12.7 45.8 160
11/10/2018 22:10 13.1 93 0.0 0 0.0 12.8 45.9 157
11/10/2018 22:20 13.1 92 0.0 0 0.0 12.0 43.2 156
11/10/2018 22:30 12.7 92 0.0 0 0.0 11.7 42.2 156
11/10/2018 22:40 12.7 92 0.0 0 0.0 11.9 43.0 157
11/10/2018 22:50 12.8 92 0.0 0 0.0 11.7 42.1 159
11/10/2018 23:00 13.2 92 0.0 0 0.0 12.0 43.0 159
11/10/2018 23:10 12.8 93 0.0 0 0.0 11.1 40.1 158
11/10/2018 23:20 12.7 93 0.0 0 0.0 10.7 38.3 163
11/10/2018 23:30 13.0 92 0.0 0 0.0 12.5 45.1 164
11/10/2018 23:40 13.6 93 0.0 0 0.0 11.9 42.9 160
11/10/2018 23:50 13.2 93 0.0 0 0.0 12.4 44.6 165
Anterior Página 1 de 1 Siguiente
Los datos de precipitación registrados en estaciones que están en cumbres son inferiores a lo real, como consecuencia del efecto del viento y de la nieve.


NOTA: Tipo de datos según el color:
   - Valores diarios o 10 minutos correctos
   - Valores diarios calculados a partir de un número de datos 10 minutos menor que 144 y mayor que 120, o de un número de datos semihorarios menor que 48 y mayor que 40 (caso de las estaciones de Riegos de Navarra y del MARM)
   - Valores diez minutos estimados


Contacto        Enlaces        Aviso legal